createdAt,value
2018-05-16T00:01:48.680Z,29.97
2018-05-16T00:04:14.615Z,29.73
2018-05-16T00:06:40.598Z,31.63
2018-05-16T00:09:06.602Z,30.70
2018-05-16T00:11:33.515Z,30.60
2018-05-16T00:13:59.502Z,30.43
2018-05-16T00:16:25.556Z,30.17
2018-05-16T00:18:51.578Z,32.70
2018-05-16T00:21:17.662Z,31.50
2018-05-16T00:23:43.711Z,32.00
2018-05-16T00:26:11.447Z,33.80
2018-05-16T00:28:37.585Z,32.47
2018-05-16T00:31:03.600Z,32.40
2018-05-16T00:33:29.675Z,35.13
2018-05-16T00:35:55.769Z,35.17
2018-05-16T00:38:21.833Z,33.80
2018-05-16T00:40:47.899Z,33.90
2018-05-16T00:43:13.923Z,36.60
2018-05-16T00:45:39.947Z,34.03
2018-05-16T00:48:05.987Z,37.10
2018-05-16T00:50:32.004Z,35.40
2018-05-16T00:52:58.065Z,37.03
2018-05-16T00:55:24.061Z,37.37
2018-05-16T00:57:50.833Z,37.27
2018-05-16T01:00:16.833Z,36.63
2018-05-16T01:02:43.575Z,40.20
2018-05-16T01:05:09.535Z,38.47
2018-05-16T01:07:36.310Z,38.53
2018-05-16T01:10:02.268Z,39.03
2018-05-16T01:12:28.205Z,40.10
2018-05-16T01:14:54.135Z,36.80
2018-05-16T01:17:20.103Z,37.87
2018-05-16T01:19:46.059Z,39.60
2018-05-16T01:22:12.154Z,38.63
2018-05-16T01:24:38.095Z,41.47
2018-05-16T01:27:04.197Z,40.00
2018-05-16T01:29:30.183Z,40.50
2018-05-16T01:31:56.234Z,41.83
2018-05-16T01:34:22.961Z,42.33
2018-05-16T01:36:49.069Z,41.17
2018-05-16T01:39:15.087Z,43.27
2018-05-16T01:41:41.201Z,42.27
2018-05-16T01:44:07.238Z,41.97
2018-05-16T01:46:33.455Z,43.87
2018-05-16T01:49:11.984Z,47.43
2018-05-16T01:51:38.018Z,44.83
2018-05-16T01:54:04.039Z,42.77
2018-05-16T01:56:30.059Z,43.57
2018-05-16T01:58:56.272Z,45.07
2018-05-16T02:01:22.296Z,45.43
2018-05-16T02:03:48.338Z,43.83
2018-05-16T02:06:14.366Z,43.63
2018-05-16T02:08:41.185Z,43.33
2018-05-16T02:11:07.226Z,44.90
2018-05-16T02:13:33.293Z,44.00
2018-05-16T02:15:59.373Z,42.40
2018-05-16T02:18:25.405Z,44.30
2018-05-16T02:20:51.466Z,42.47
2018-05-16T02:23:17.557Z,41.60
2018-05-16T02:25:43.578Z,41.93
2018-05-16T02:28:09.683Z,39.70
2018-05-16T02:30:35.730Z,40.47
2018-05-16T02:33:02.551Z,39.60
2018-05-16T02:35:28.599Z,38.43
2018-05-16T02:37:54.606Z,40.30
2018-05-16T02:40:20.638Z,40.30
2018-05-16T02:42:46.665Z,41.80
2018-05-16T02:45:12.981Z,39.47
2018-05-16T02:47:39.037Z,40.53
2018-05-16T02:50:05.051Z,43.20
2018-05-16T02:52:31.152Z,43.07
2018-05-16T02:54:57.178Z,42.77
2018-05-16T02:57:23.200Z,44.70
2018-05-16T02:59:49.229Z,43.63
2018-05-16T03:02:15.249Z,46.57
2018-05-16T03:04:41.279Z,45.63
2018-05-16T03:07:08.038Z,47.77
2018-05-16T03:09:34.138Z,46.10
2018-05-16T03:12:00.179Z,47.53
2018-05-16T03:14:26.201Z,46.03
2018-05-16T03:16:52.221Z,47.57
2018-05-16T03:19:18.292Z,46.80
2018-05-16T03:21:44.274Z,50.13
2018-05-16T03:24:10.290Z,48.47
2018-05-16T03:26:36.407Z,46.87
2018-05-16T03:29:02.397Z,46.70
2018-05-16T03:31:28.318Z,45.83
2018-05-16T03:33:54.270Z,46.43
2018-05-16T03:36:20.243Z,46.37
2018-05-16T03:38:46.178Z,46.97
2018-05-16T03:41:12.912Z,47.30
2018-05-16T03:43:38.842Z,49.20
2018-05-16T03:46:04.818Z,49.53
2018-05-16T03:48:30.762Z,46.03
2018-05-16T03:50:56.700Z,44.93
2018-05-16T03:53:22.646Z,48.30
2018-05-16T03:55:48.594Z,45.07
2018-05-16T03:58:27.105Z,46.43
2018-05-16T04:01:05.468Z,48.37
2018-05-16T04:03:43.930Z,46.57
2018-05-16T04:06:10.598Z,45.63
2018-05-16T04:08:36.539Z,46.27
2018-05-16T04:11:02.490Z,46.70
2018-05-16T04:13:28.450Z,43.17
2018-05-16T04:15:54.400Z,46.60
2018-05-16T04:18:20.359Z,45.17
2018-05-16T04:20:46.303Z,44.60
2018-05-16T04:23:12.243Z,45.20
2018-05-16T04:25:38.182Z,44.30
2018-05-16T04:28:04.241Z,45.17
2018-05-16T04:30:30.217Z,43.23
2018-05-16T04:32:56.973Z,42.87
2018-05-16T04:35:22.984Z,43.57
2018-05-16T04:37:48.893Z,43.87
2018-05-16T04:40:14.839Z,42.33
2018-05-16T04:42:40.783Z,44.47
2018-05-16T04:45:06.822Z,40.37
2018-05-16T04:47:32.777Z,42.10
2018-05-16T04:49:59.448Z,41.77
2018-05-16T04:52:25.438Z,47.23
2018-05-16T04:54:51.387Z,41.63
2018-05-16T04:57:17.349Z,39.83
2018-05-16T04:59:43.326Z,37.70
2018-05-16T05:02:09.274Z,41.70
2018-05-16T05:04:35.248Z,40.40
2018-05-16T05:07:01.190Z,43.20
2018-05-16T05:09:27.144Z,40.07
2018-05-16T05:11:53.130Z,42.13
2018-05-16T05:14:19.840Z,38.50
2018-05-16T05:16:45.836Z,42.67
2018-05-16T05:19:11.790Z,38.40
2018-05-16T05:21:37.751Z,35.13
2018-05-16T05:24:03.821Z,33.90
2018-05-16T05:26:30.240Z,37.47
2018-05-16T05:28:56.296Z,34.63
2018-05-16T05:31:22.258Z,35.10
2018-05-16T05:33:48.157Z,36.20
2018-05-16T05:36:14.097Z,34.53
2018-05-16T05:38:39.992Z,34.50
2018-05-16T05:41:05.915Z,32.73
2018-05-16T05:43:31.839Z,33.03
2018-05-16T05:45:57.745Z,30.80
2018-05-16T05:48:23.677Z,34.70
2018-05-16T05:50:49.573Z,31.63
2018-05-16T05:53:16.241Z,30.47
2018-05-16T05:55:42.484Z,31.40
2018-05-16T05:58:08.376Z,32.90
2018-05-16T06:00:34.281Z,31.33
2018-05-16T06:03:00.934Z,32.80
2018-05-16T06:05:26.910Z,32.30
2018-05-16T06:07:52.765Z,33.07
2018-05-16T06:10:19.424Z,32.23
2018-05-16T06:12:45.368Z,32.47
2018-05-16T06:15:11.254Z,29.70
2018-05-16T06:17:37.169Z,31.37
2018-05-16T06:20:03.067Z,29.47
2018-05-16T06:22:29.729Z,31.70
2018-05-16T06:24:55.676Z,31.60
2018-05-16T06:27:21.784Z,29.80
2018-05-16T06:29:47.526Z,28.80
2018-05-16T06:32:13.444Z,35.83
2018-05-16T06:34:39.349Z,31.43
2018-05-16T06:37:05.269Z,32.60
2018-05-16T06:39:31.212Z,36.50
2018-05-16T06:41:57.101Z,33.80
2018-05-16T06:44:23.016Z,30.70
2018-05-16T06:46:48.908Z,31.90
2018-05-16T06:49:14.825Z,31.30
2018-05-16T06:51:40.756Z,29.30
2018-05-16T06:54:07.514Z,31.37
2018-05-16T06:56:34.228Z,29.77
2018-05-16T06:59:00.891Z,29.67
2018-05-16T07:01:27.549Z,28.47
2018-05-16T07:03:53.485Z,27.97
2018-05-16T07:06:19.408Z,27.20
2018-05-16T07:08:45.320Z,36.60
2018-05-16T07:11:11.232Z,27.87
2018-05-16T07:13:37.238Z,24.90
2018-05-16T07:16:03.084Z,27.90
2018-05-16T07:18:28.981Z,26.30
2018-05-16T07:20:54.868Z,26.23
2018-05-16T07:23:20.765Z,24.67
2018-05-16T07:25:46.670Z,24.80
2018-05-16T07:28:12.612Z,24.70
2018-05-16T07:30:38.523Z,24.30
2018-05-16T07:33:08.372Z,22.83
2018-05-16T07:35:34.312Z,29.83
2018-05-16T07:38:00.972Z,27.00
2018-05-16T07:40:26.943Z,24.50
2018-05-16T07:42:52.824Z,21.43
2018-05-16T07:45:18.717Z,24.50
2018-05-16T07:47:44.637Z,22.97
2018-05-16T07:50:10.535Z,20.33
2018-05-16T07:52:36.450Z,20.73
2018-05-16T07:55:02.345Z,19.77
2018-05-16T07:57:28.237Z,20.83
2018-05-16T07:59:54.236Z,20.90
2018-05-16T08:02:20.884Z,20.37
2018-05-16T08:04:46.790Z,22.40
2018-05-16T08:07:13.415Z,16.47
2018-05-16T08:09:39.317Z,16.33
2018-05-16T08:12:05.419Z,15.03
2018-05-16T08:14:31.332Z,15.33
2018-05-16T08:16:57.273Z,14.50
2018-05-16T08:19:23.185Z,15.57
2018-05-16T08:21:49.145Z,16.60
2018-05-16T08:24:15.044Z,16.57
2018-05-16T08:26:41.701Z,14.50
2018-05-16T08:29:07.624Z,15.47
2018-05-16T08:31:33.525Z,15.30
2018-05-16T08:33:59.467Z,15.23
2018-05-16T08:36:25.400Z,15.90
2018-05-16T08:38:52.061Z,16.93
2018-05-16T08:41:17.960Z,15.60
2018-05-16T08:43:44.611Z,14.90
2018-05-16T08:46:10.513Z,15.60
2018-05-16T08:48:37.189Z,16.30
2018-05-16T08:51:03.076Z,16.57
2018-05-16T08:53:29.808Z,14.40
2018-05-16T08:55:55.661Z,15.33
2018-05-16T08:58:21.674Z,15.47
2018-05-16T09:00:47.603Z,15.63
2018-05-16T09:03:13.545Z,14.80
2018-05-16T09:05:39.469Z,14.80
2018-05-16T09:08:05.402Z,16.67
2018-05-16T09:10:31.292Z,15.50
2018-05-16T09:12:57.205Z,16.33
2018-05-16T09:15:23.125Z,14.30
2018-05-16T09:17:49.057Z,14.20
2018-05-16T09:20:14.981Z,14.83
2018-05-16T09:22:40.935Z,14.07
2018-05-16T09:25:06.956Z,13.37
2018-05-16T09:27:32.793Z,14.07
2018-05-16T09:29:58.711Z,13.60
2018-05-16T09:32:24.625Z,12.90
2018-05-16T09:34:50.543Z,12.33
2018-05-16T09:37:16.630Z,12.03
2018-05-16T09:39:42.723Z,13.00
2018-05-16T09:42:09.389Z,11.80
2018-05-16T09:44:35.321Z,12.90
2018-05-16T09:47:01.275Z,12.93
2018-05-16T09:49:27.188Z,14.00
2018-05-16T09:51:53.085Z,13.00
2018-05-16T09:54:19.006Z,12.90
2018-05-16T09:56:44.915Z,11.57
2018-05-16T09:59:10.804Z,10.50
2018-05-16T10:01:37.509Z,9.27
2018-05-16T10:04:03.400Z,10.10
2018-05-16T10:06:29.338Z,8.90
2018-05-16T10:08:55.643Z,8.77
2018-05-16T10:11:21.559Z,8.00
2018-05-16T10:13:47.461Z,8.00
2018-05-16T10:16:14.139Z,9.30
2018-05-16T10:18:40.002Z,10.43
2018-05-16T10:21:05.912Z,9.10
2018-05-16T10:23:31.812Z,8.40
2018-05-16T10:25:57.792Z,8.00
2018-05-16T10:28:24.441Z,8.00
2018-05-16T10:30:50.429Z,7.47
2018-05-16T10:33:16.521Z,7.40
2018-05-16T10:35:42.351Z,7.43
2018-05-16T10:38:08.301Z,6.20
2018-05-16T10:40:34.955Z,7.60
2018-05-16T10:43:01.617Z,7.77
2018-05-16T10:45:27.545Z,8.97
2018-05-16T10:47:53.445Z,7.57
2018-05-16T10:50:19.332Z,9.30
2018-05-16T10:52:45.239Z,9.17
2018-05-16T10:55:11.141Z,11.40
2018-05-16T10:57:37.792Z,9.43
2018-05-16T11:00:03.720Z,8.10
2018-05-16T11:02:29.651Z,8.33
2018-05-16T11:04:55.556Z,9.23
2018-05-16T11:07:21.465Z,7.70
2018-05-16T11:09:47.385Z,8.33
2018-05-16T11:12:13.305Z,7.20
2018-05-16T11:14:39.246Z,8.03
2018-05-16T11:17:05.152Z,6.77
2018-05-16T11:19:31.054Z,8.47
2018-05-16T11:21:57.026Z,7.80
2018-05-16T11:24:23.784Z,7.80
2018-05-16T11:26:50.405Z,8.10
2018-05-16T11:29:16.308Z,7.60
2018-05-16T11:31:42.206Z,8.30
2018-05-16T11:34:08.140Z,8.23
2018-05-16T11:36:34.164Z,8.73
2018-05-16T11:39:00.104Z,8.57
2018-05-16T11:41:26.083Z,10.80
2018-05-16T11:43:52.468Z,7.83
2018-05-16T11:46:19.210Z,8.50
2018-05-16T11:48:45.921Z,8.70
2018-05-16T11:51:12.533Z,8.40
2018-05-16T11:53:38.454Z,12.47
2018-05-16T11:56:04.386Z,10.67
2018-05-16T11:58:30.329Z,8.07
2018-05-16T12:00:56.220Z,8.50
2018-05-16T12:03:22.137Z,7.97
2018-05-16T12:05:48.071Z,8.13
2018-05-16T12:08:13.993Z,8.00
2018-05-16T12:10:39.934Z,8.40
2018-05-16T12:13:05.829Z,9.00
2018-05-16T12:15:31.775Z,12.63
2018-05-16T12:17:57.684Z,8.60
2018-05-16T12:20:24.344Z,9.57
2018-05-16T12:22:50.276Z,11.77
2018-05-16T12:25:16.919Z,7.70
2018-05-16T12:27:44.301Z,12.20
2018-05-16T12:30:10.210Z,7.90
2018-05-16T12:32:36.128Z,7.00
2018-05-16T12:35:02.073Z,10.20
2018-05-16T12:37:27.972Z,8.83
2018-05-16T12:39:53.876Z,8.40
2018-05-16T12:42:20.524Z,9.07
2018-05-16T12:44:47.192Z,8.90
2018-05-16T12:47:13.105Z,7.40
2018-05-16T12:49:39.000Z,7.57
2018-05-16T12:52:05.677Z,9.10
2018-05-16T12:54:31.630Z,7.83
2018-05-16T12:56:59.326Z,7.53
2018-05-16T12:59:27.065Z,5.93
2018-05-16T13:01:54.425Z,6.90
2018-05-16T13:04:20.323Z,6.30
2018-05-16T13:06:46.240Z,8.83
2018-05-16T13:09:13.967Z,8.63
2018-05-16T13:11:41.711Z,6.27
2018-05-16T13:14:09.510Z,5.90
2018-05-16T13:16:37.236Z,5.73
2018-05-16T13:19:05.051Z,5.50
2018-05-16T13:21:32.768Z,6.30
2018-05-16T13:24:00.508Z,5.37
2018-05-16T13:26:26.460Z,6.70
2018-05-16T13:28:52.369Z,7.57
2018-05-16T13:31:19.087Z,8.90
2018-05-16T13:33:45.016Z,5.60
2018-05-16T13:36:11.781Z,11.33
2018-05-16T13:38:39.471Z,5.30
2018-05-16T13:41:07.184Z,8.20
2018-05-16T13:43:33.604Z,4.80
2018-05-16T13:45:59.496Z,5.20
2018-05-16T13:48:25.438Z,4.77
2018-05-16T13:50:51.434Z,6.50
2018-05-16T13:53:17.309Z,4.90
2018-05-16T13:55:44.004Z,4.83
2018-05-16T13:58:09.945Z,5.27
2018-05-16T14:00:35.919Z,6.50
2018-05-16T14:03:01.873Z,5.10
2018-05-16T14:05:27.784Z,5.20
2018-05-16T14:07:53.681Z,6.90
2018-05-16T14:10:19.588Z,6.20
2018-05-16T14:12:46.227Z,6.00
2018-05-16T14:15:12.260Z,7.80
2018-05-16T14:17:38.092Z,7.10
2018-05-16T14:20:04.017Z,10.70
2018-05-16T14:22:29.975Z,8.33
2018-05-16T14:24:55.879Z,8.50
2018-05-16T14:27:21.829Z,7.73
2018-05-16T14:29:47.772Z,8.50
2018-05-16T14:35:09.143Z,6.90
2018-05-16T14:37:35.061Z,6.50
2018-05-16T14:40:01.018Z,8.33
2018-05-16T14:42:26.960Z,7.77
2018-05-16T14:44:53.648Z,8.00
2018-05-16T14:47:19.565Z,7.63
2018-05-16T14:49:45.568Z,7.70
2018-05-16T14:52:11.594Z,7.87
2018-05-16T14:54:37.524Z,7.43
2018-05-16T14:57:03.476Z,7.47
2018-05-16T14:59:29.424Z,8.90
2018-05-16T15:01:56.052Z,8.17
2018-05-16T15:04:22.019Z,7.67
2018-05-16T15:06:48.101Z,10.27
2018-05-16T15:09:14.119Z,7.70
2018-05-16T15:11:40.051Z,8.50
2018-05-16T15:14:06.724Z,7.60
2018-05-16T15:16:32.652Z,7.17
2018-05-16T15:18:59.305Z,7.30
2018-05-16T15:21:25.256Z,9.73
2018-05-16T15:23:51.148Z,7.20
2018-05-16T15:26:17.133Z,7.97
2018-05-16T15:28:43.081Z,8.90
2018-05-16T15:31:09.008Z,13.20
2018-05-16T15:33:34.927Z,11.37
2018-05-16T15:36:00.864Z,7.40
2018-05-16T15:38:26.850Z,6.90
2018-05-16T15:40:52.773Z,6.47
2018-05-16T15:43:18.751Z,7.00
2018-05-16T15:45:44.661Z,7.13
2018-05-16T15:48:10.557Z,6.37
2018-05-16T15:50:36.470Z,7.00
2018-05-16T15:53:02.394Z,7.40
2018-05-16T15:55:28.300Z,9.50
2018-05-16T15:57:54.232Z,9.27
2018-05-16T16:00:20.172Z,8.70
2018-05-16T16:02:46.117Z,8.57
2018-05-16T16:05:12.853Z,9.77
2018-05-16T16:07:38.793Z,8.73
2018-05-16T16:10:05.452Z,9.30
2018-05-16T16:12:31.382Z,10.20
2018-05-16T16:14:57.309Z,10.90
2018-05-16T16:17:23.218Z,9.83
2018-05-16T16:19:49.116Z,8.37
2018-05-16T16:22:15.126Z,9.60
2018-05-16T16:24:41.026Z,8.30
2018-05-16T16:27:06.955Z,10.00
2018-05-16T16:29:32.868Z,8.50
2018-05-16T16:31:58.850Z,12.30
2018-05-16T16:34:24.814Z,11.90
2018-05-16T16:36:50.704Z,14.20
2018-05-16T16:39:16.692Z,10.93
2018-05-16T16:41:42.684Z,7.80
2018-05-16T16:44:08.669Z,7.83
2018-05-16T16:46:34.643Z,8.60
2018-05-16T16:49:00.540Z,8.50
2018-05-16T16:51:26.502Z,8.90
2018-05-16T16:53:53.176Z,8.30
2018-05-16T16:56:19.111Z,10.00
2018-05-16T16:58:45.108Z,9.43
2018-05-16T17:01:11.018Z,10.53
2018-05-16T17:03:36.905Z,10.30
2018-05-16T17:06:02.858Z,9.10
2018-05-16T17:08:29.498Z,9.57
2018-05-16T17:10:55.512Z,9.13
2018-05-16T17:13:21.420Z,8.60
2018-05-16T17:15:47.327Z,10.53
2018-05-16T17:18:13.322Z,11.33
2018-05-16T17:20:39.204Z,8.40
2018-05-16T17:23:05.861Z,10.23
2018-05-16T17:25:31.816Z,14.13
2018-05-16T17:27:57.736Z,9.17
2018-05-16T17:30:23.660Z,12.57
2018-05-16T17:32:50.173Z,10.40
2018-05-16T17:35:16.135Z,10.70
2018-05-16T17:37:42.100Z,10.93
2018-05-16T17:40:07.985Z,10.60
2018-05-16T17:42:34.699Z,9.50
2018-05-16T17:45:00.613Z,9.30
2018-05-16T17:47:26.533Z,14.57
2018-05-16T17:49:52.420Z,11.83
2018-05-16T17:52:18.328Z,13.73
2018-05-16T17:54:44.237Z,14.97
2018-05-16T17:57:10.899Z,11.20
2018-05-16T17:59:36.798Z,11.90
2018-05-16T18:02:02.753Z,9.90
2018-05-16T18:04:28.688Z,12.57
2018-05-16T18:06:54.591Z,11.37
2018-05-16T18:09:20.494Z,9.90
2018-05-16T18:11:46.419Z,9.73
2018-05-16T18:14:13.326Z,9.77
2018-05-16T18:16:52.585Z,9.80
2018-05-16T18:19:19.262Z,9.33
2018-05-16T18:21:45.219Z,12.93
2018-05-16T18:24:11.952Z,14.77
2018-05-16T18:26:37.922Z,12.00
2018-05-16T18:29:03.813Z,11.77
2018-05-16T18:31:30.537Z,12.63
2018-05-16T18:33:56.449Z,17.43
2018-05-16T18:36:22.388Z,14.37
2018-05-16T18:38:48.352Z,12.17
2018-05-16T18:41:21.215Z,13.20
2018-05-16T18:43:48.581Z,11.67
2018-05-16T18:46:14.504Z,11.47
2018-05-16T18:48:40.479Z,13.30
2018-05-16T18:51:06.408Z,11.20
2018-05-16T18:53:32.361Z,11.60
2018-05-16T18:55:58.405Z,14.77
2018-05-16T18:58:24.222Z,10.70
2018-05-16T19:00:50.119Z,11.47
2018-05-16T19:03:16.773Z,11.50
2018-05-16T19:05:42.753Z,12.07
2018-05-16T19:08:08.648Z,11.10
2018-05-16T19:10:34.603Z,12.00
2018-05-16T19:13:00.465Z,10.33
2018-05-16T19:15:26.424Z,11.73
2018-05-16T19:17:52.327Z,10.50
2018-05-16T19:20:18.272Z,10.80
2018-05-16T19:22:44.180Z,11.90
2018-05-16T19:25:10.072Z,11.33
2018-05-16T19:27:36.194Z,11.50
2018-05-16T19:30:02.592Z,11.87
2018-05-16T19:32:29.348Z,14.80
2018-05-16T19:34:55.291Z,12.63
2018-05-16T19:37:21.202Z,12.33
2018-05-16T19:39:47.112Z,12.07
2018-05-16T19:42:13.252Z,12.90
2018-05-16T19:44:39.176Z,14.33
2018-05-16T19:47:05.311Z,13.20
2018-05-16T19:49:31.316Z,12.60
2018-05-16T19:51:57.295Z,18.13
2018-05-16T19:54:24.160Z,12.87
2018-05-16T19:56:51.645Z,12.77
2018-05-16T19:59:17.585Z,14.33
2018-05-16T20:01:43.712Z,13.67
2018-05-16T20:04:09.728Z,14.30
2018-05-16T20:06:35.671Z,15.50
2018-05-16T20:09:01.697Z,15.60
2018-05-16T20:11:27.637Z,16.53
2018-05-16T20:13:53.724Z,15.80
2018-05-16T20:16:19.733Z,17.10
2018-05-16T20:18:45.728Z,18.70
2018-05-16T20:21:11.688Z,14.10
2018-05-16T20:23:37.668Z,15.37
2018-05-16T20:26:04.572Z,16.20
2018-05-16T20:28:31.621Z,17.87
2018-05-16T20:30:58.068Z,16.07
2018-05-16T20:33:24.026Z,16.50
2018-05-16T20:35:51.797Z,17.00
2018-05-16T20:38:18.788Z,16.70
2018-05-16T20:40:46.438Z,15.53
2018-05-16T20:43:14.875Z,14.43
2018-05-16T20:45:42.354Z,14.90
2018-05-16T20:48:08.851Z,17.33
2018-05-16T20:50:35.643Z,18.07
2018-05-16T20:53:02.233Z,17.03
2018-05-16T20:55:28.964Z,15.63
2018-05-16T20:57:55.023Z,16.60
2018-05-16T21:03:27.046Z,16.90
2018-05-16T21:05:55.842Z,20.53
2018-05-16T21:08:22.659Z,18.93
2018-05-16T21:10:49.459Z,16.53
2018-05-16T21:13:16.906Z,17.20
2018-05-16T21:15:43.992Z,17.27
2018-05-16T21:18:10.710Z,15.83
2018-05-16T21:20:37.111Z,16.97
2018-05-16T21:23:03.047Z,16.30
2018-05-16T21:25:29.726Z,16.37
2018-05-16T21:27:55.779Z,15.43
2018-05-16T21:30:21.720Z,15.70
2018-05-16T21:32:47.659Z,15.87
2018-05-16T21:35:14.379Z,15.00
2018-05-16T21:37:41.221Z,15.37
2018-05-16T21:40:07.891Z,15.20
2018-05-16T21:42:36.517Z,14.40
2018-05-16T21:45:03.315Z,18.07
2018-05-16T21:47:29.497Z,16.40
2018-05-16T21:49:56.161Z,13.97
2018-05-16T21:52:22.965Z,14.40
2018-05-16T21:54:48.876Z,14.20
2018-05-16T21:57:14.995Z,14.40
2018-05-16T21:59:40.944Z,13.33
2018-05-16T22:02:06.829Z,12.90
2018-05-16T22:04:32.736Z,13.23
2018-05-16T22:06:58.884Z,13.17
2018-05-16T22:09:24.781Z,14.23
2018-05-16T22:11:50.690Z,13.73
2018-05-16T22:14:17.311Z,13.40
2018-05-16T22:16:43.216Z,14.57
2018-05-16T22:19:09.139Z,13.73
2018-05-16T22:21:35.028Z,13.00
2018-05-16T22:24:00.939Z,14.17
2018-05-16T22:26:26.846Z,13.93
2018-05-16T22:28:52.772Z,13.40
2018-05-16T22:31:25.043Z,13.03
2018-05-16T22:33:57.155Z,13.67
2018-05-16T22:36:29.249Z,12.97
2018-05-16T22:39:02.162Z,12.87
2018-05-16T22:41:34.422Z,13.80
2018-05-16T22:44:06.413Z,13.33
2018-05-16T22:46:32.325Z,13.47
2018-05-16T22:48:58.361Z,14.53
2018-05-16T22:51:24.333Z,13.70
2018-05-16T22:53:50.988Z,12.20
2018-05-16T22:56:16.958Z,12.67
2018-05-16T22:58:42.877Z,12.60
2018-05-16T23:01:09.637Z,12.60
2018-05-16T23:03:35.550Z,12.10
2018-05-16T23:06:01.458Z,12.53
2018-05-16T23:08:27.442Z,12.90
2018-05-16T23:10:53.350Z,12.40
2018-05-16T23:13:19.257Z,12.63
2018-05-16T23:15:45.907Z,11.83
2018-05-16T23:18:12.572Z,11.90
2018-05-16T23:20:38.521Z,11.00
2018-05-16T23:23:04.469Z,10.43
2018-05-16T23:25:31.121Z,10.03
2018-05-16T23:27:57.839Z,10.40
2018-05-16T23:30:23.730Z,11.60
2018-05-16T23:32:49.685Z,11.17
2018-05-16T23:35:15.584Z,10.13
2018-05-16T23:37:41.473Z,10.80
2018-05-16T23:40:07.390Z,10.50
2018-05-16T23:42:33.291Z,10.83
2018-05-16T23:44:59.940Z,10.63
2018-05-16T23:47:25.839Z,9.83
2018-05-16T23:49:52.479Z,10.10
2018-05-16T23:52:19.138Z,9.90
2018-05-16T23:54:45.122Z,11.37
2018-05-16T23:57:11.483Z,11.10
2018-05-16T23:59:37.380Z,10.60
